createdAt,value
2019-01-05T00:00:21.412Z,8.16
2019-01-05T00:02:52.445Z,8.18
2019-01-05T00:05:29.094Z,8.21
2019-01-05T00:08:36.038Z,8.25
2019-01-05T00:11:23.533Z,8.18
2019-01-05T00:14:00.012Z,8.20
2019-01-05T00:16:31.610Z,8.20
2019-01-05T00:19:03.833Z,8.22
2019-01-05T00:21:51.393Z,8.25
2019-01-05T00:24:25.666Z,8.26
2019-01-05T00:26:57.674Z,8.29
2019-01-05T00:29:37.574Z,8.32
2019-01-05T00:32:29.188Z,8.35
2019-01-05T00:35:07.427Z,8.34
2019-01-05T00:37:41.271Z,8.35
2019-01-05T00:40:28.312Z,8.38
2019-01-05T00:43:09.448Z,8.37
2019-01-05T00:45:47.725Z,8.40
2019-01-05T00:48:24.033Z,8.40
2019-01-05T00:51:12.657Z,8.41
2019-01-05T00:53:44.207Z,8.42
2019-01-05T00:56:15.820Z,8.43
2019-01-05T00:58:46.929Z,8.45
2019-01-05T01:01:34.035Z,8.46
2019-01-05T01:04:13.891Z,8.44
2019-01-05T01:06:44.962Z,8.42
2019-01-05T01:09:18.663Z,8.43
2019-01-05T01:11:55.815Z,8.46
2019-01-05T01:14:43.261Z,8.47
2019-01-05T01:17:30.185Z,8.44
2019-01-05T01:20:07.048Z,8.44
2019-01-05T01:22:47.770Z,8.44
2019-01-05T01:25:19.701Z,8.46
2019-01-05T01:27:56.762Z,8.47
2019-01-05T01:30:44.715Z,8.46
2019-01-05T01:33:16.223Z,8.47
2019-01-05T01:35:56.443Z,8.48
2019-01-05T01:38:43.537Z,8.48
2019-01-05T01:41:28.003Z,8.48
2019-01-05T01:44:14.096Z,8.47
2019-01-05T01:47:01.949Z,8.48
2019-01-05T01:49:37.698Z,8.45
2019-01-05T01:52:25.009Z,8.48
2019-01-05T01:54:59.057Z,8.51
2019-01-05T01:57:30.672Z,8.52
2019-01-05T02:00:22.567Z,8.58
2019-01-05T02:03:14.618Z,8.57
2019-01-05T02:05:49.285Z,8.55
2019-01-05T02:08:30.079Z,8.55
2019-01-05T02:11:10.876Z,8.59
2019-01-05T02:13:58.354Z,8.62
2019-01-05T02:16:48.352Z,8.64
2019-01-05T02:19:29.390Z,8.67
2019-01-05T02:22:41.207Z,8.68
2019-01-05T02:25:57.380Z,8.65
2019-01-05T02:29:10.295Z,8.61
2019-01-05T02:32:10.493Z,8.58
2019-01-05T02:34:51.842Z,8.57
2019-01-05T02:37:45.161Z,8.60
2019-01-05T02:41:03.133Z,8.63
2019-01-05T02:44:06.158Z,8.58
2019-01-05T02:47:14.064Z,8.56
2019-01-05T02:50:01.785Z,8.54
2019-01-05T02:53:23.655Z,8.56
2019-01-05T02:56:27.301Z,8.52
2019-01-05T02:59:47.025Z,8.51
2019-01-05T03:03:03.538Z,8.48
2019-01-05T03:05:59.414Z,8.49
2019-01-05T03:09:11.116Z,8.52
2019-01-05T03:12:23.962Z,8.55
2019-01-05T03:15:31.435Z,8.52
2019-01-05T03:18:15.875Z,8.56
2019-01-05T03:21:29.285Z,8.64
2019-01-05T03:24:22.510Z,8.65
2019-01-05T03:27:51.973Z,8.68
2019-01-05T03:31:02.501Z,8.65
2019-01-05T03:34:17.171Z,8.63
2019-01-05T03:37:39.790Z,8.68
2019-01-05T03:40:45.822Z,8.66
2019-01-05T03:43:48.459Z,8.66
2019-01-05T03:47:10.631Z,8.68
2019-01-05T03:50:14.600Z,8.65
2019-01-05T03:53:05.507Z,8.66
2019-01-05T03:56:18.969Z,8.71
2019-01-05T03:59:27.178Z,8.71
2019-01-05T04:02:58.907Z,8.73
2019-01-05T04:06:21.373Z,8.72
2019-01-05T04:09:22.012Z,8.72
2019-01-05T04:12:39.237Z,8.77
2019-01-05T04:15:50.926Z,8.77
2019-01-05T04:19:01.039Z,8.80
2019-01-05T04:25:44.155Z,8.82
2019-01-05T04:29:07.870Z,8.85
2019-01-05T04:32:38.783Z,8.87
2019-01-05T04:35:35.586Z,8.87
2019-01-05T04:39:02.412Z,8.91
2019-01-05T04:42:01.850Z,8.91
2019-01-05T04:45:24.182Z,8.95
2019-01-05T04:48:50.569Z,8.95
2019-01-05T04:52:14.016Z,8.97
2019-01-05T04:55:29.302Z,8.99
2019-01-05T04:58:38.262Z,9.00
2019-01-05T05:01:29.537Z,9.02
2019-01-05T05:04:27.570Z,9.04
2019-01-05T05:07:30.851Z,9.08
2019-01-05T05:10:38.589Z,9.11
2019-01-05T05:13:53.128Z,9.12
2019-01-05T05:16:55.811Z,9.11
2019-01-05T05:19:49.801Z,9.12
2019-01-05T05:23:02.580Z,9.15
2019-01-05T05:25:53.017Z,9.15
2019-01-05T05:28:55.852Z,9.20
2019-01-05T05:32:06.185Z,9.22
2019-01-05T05:35:18.793Z,9.21
2019-01-05T05:38:46.359Z,9.23
2019-01-05T05:42:01.815Z,9.21
2019-01-05T05:45:26.066Z,9.21
2019-01-05T05:48:55.207Z,9.21
2019-01-05T05:52:02.761Z,9.21
2019-01-05T05:55:26.567Z,9.24
2019-01-05T05:58:22.944Z,9.25
2019-01-05T06:01:42.110Z,9.30
2019-01-05T06:04:44.888Z,9.32
2019-01-05T06:08:05.458Z,9.37
2019-01-05T06:11:01.554Z,9.38
2019-01-05T06:14:07.416Z,9.41
2019-01-05T06:17:30.227Z,9.45
2019-01-05T06:20:44.903Z,9.43
2019-01-05T06:23:59.519Z,9.42
2019-01-05T06:27:19.262Z,9.51
2019-01-05T06:30:30.715Z,9.50
2019-01-05T06:33:50.227Z,9.52
2019-01-05T06:36:58.134Z,9.53
2019-01-05T06:40:16.965Z,9.53
2019-01-05T06:43:36.676Z,9.55
2019-01-05T06:46:32.961Z,9.54
2019-01-05T06:49:23.723Z,9.59
2019-01-05T06:52:38.326Z,9.63
2019-01-05T06:55:33.123Z,9.66
2019-01-05T06:58:32.525Z,9.69
2019-01-05T07:01:31.959Z,9.73
2019-01-05T07:04:46.956Z,9.74
2019-01-05T07:08:20.237Z,9.76
2019-01-05T07:11:29.835Z,9.72
2019-01-05T07:17:54.733Z,9.76
2019-01-05T07:21:00.407Z,9.80
2019-01-05T07:24:07.378Z,9.83
2019-01-05T07:27:38.824Z,9.87
2019-01-05T07:31:05.397Z,9.87
2019-01-05T07:34:42.654Z,9.87
2019-01-05T07:37:26.987Z,9.85
2019-01-05T07:40:35.669Z,9.91
2019-01-05T07:44:20.091Z,9.97
2019-01-05T07:47:13.211Z,10.02
2019-01-05T07:50:37.095Z,10.05
2019-01-05T07:53:43.864Z,10.08
2019-01-05T07:56:34.155Z,10.14
2019-01-05T07:59:51.791Z,10.20
2019-01-05T08:03:08.297Z,10.20
2019-01-05T08:05:58.822Z,10.20
2019-01-05T08:08:56.479Z,10.23
2019-01-05T08:11:49.533Z,10.25
2019-01-05T08:15:01.478Z,10.26
2019-01-05T08:18:22.275Z,10.25
2019-01-05T08:21:29.157Z,10.20
2019-01-05T08:24:51.383Z,10.22
2019-01-05T08:28:03.194Z,10.19
2019-01-05T08:31:09.818Z,10.18
2019-01-05T08:34:36.642Z,10.22
2019-01-05T08:37:36.290Z,10.21
2019-01-05T08:40:29.232Z,10.21
2019-01-05T08:44:11.228Z,10.22
2019-01-05T08:47:14.094Z,10.17
2019-01-05T08:50:32.087Z,10.16
2019-01-05T08:53:39.290Z,10.13
2019-01-05T08:57:13.793Z,10.16
2019-01-05T09:00:29.882Z,10.12
2019-01-05T09:03:51.808Z,10.10
2019-01-05T09:06:44.753Z,10.12
2019-01-05T09:09:46.797Z,10.16
2019-01-05T09:13:13.689Z,10.19
2019-01-05T09:16:38.046Z,10.18
2019-01-05T09:19:46.133Z,10.16
2019-01-05T09:22:47.320Z,10.17
2019-01-05T09:26:10.931Z,10.21
2019-01-05T09:29:40.219Z,10.27
2019-01-05T09:32:40.847Z,10.31
2019-01-05T09:35:53.947Z,10.33
2019-01-05T09:39:05.418Z,10.32
2019-01-05T09:42:30.039Z,10.33
2019-01-05T09:45:42.198Z,10.30
2019-01-05T09:48:47.543Z,10.29
2019-01-05T09:52:04.281Z,10.31
2019-01-05T09:55:24.999Z,10.32
2019-01-05T09:58:34.207Z,10.30
2019-01-05T10:01:33.642Z,10.32
2019-01-05T10:05:15.539Z,10.36
2019-01-05T10:08:29.772Z,10.34
2019-01-05T10:11:41.403Z,10.34
2019-01-05T10:15:03.992Z,10.37
2019-01-05T10:18:23.072Z,10.36
2019-01-05T10:21:53.017Z,10.37
2019-01-05T10:25:13.098Z,10.36
2019-01-05T10:28:20.534Z,10.39
2019-01-05T10:31:31.195Z,10.42
2019-01-05T10:34:54.205Z,10.45
2019-01-05T10:37:50.847Z,10.43
2019-01-05T10:41:04.023Z,10.45
2019-01-05T10:44:12.858Z,10.48
2019-01-05T10:47:34.198Z,10.47
2019-01-05T10:50:44.403Z,10.47
2019-01-05T10:53:38.112Z,10.48
2019-01-05T10:56:57.021Z,10.50
2019-01-05T11:00:11.890Z,10.49
2019-01-05T11:03:18.918Z,10.48
2019-01-05T11:06:33.912Z,10.47
2019-01-05T11:09:37.340Z,10.45
2019-01-05T11:12:46.765Z,10.45
2019-01-05T11:15:55.001Z,10.45
2019-01-05T11:19:17.339Z,10.42
2019-01-05T11:22:33.460Z,10.39
2019-01-05T11:25:24.208Z,10.39
2019-01-05T11:28:37.995Z,10.45
2019-01-05T11:32:08.679Z,10.45
2019-01-05T11:35:21.435Z,10.41
2019-01-05T11:38:36.190Z,10.40
2019-01-05T11:41:51.292Z,10.42
2019-01-05T11:44:31.993Z,10.43
2019-01-05T11:47:23.573Z,10.48
2019-01-05T11:50:36.247Z,10.51
2019-01-05T11:53:55.363Z,10.52
2019-01-05T11:57:27.743Z,10.51
2019-01-05T12:00:57.406Z,10.50
2019-01-05T12:04:03.424Z,10.46
2019-01-05T12:07:11.877Z,10.46
2019-01-05T12:10:21.500Z,10.48
2019-01-05T12:13:23.760Z,10.48
2019-01-05T12:16:14.568Z,10.52
2019-01-05T12:19:29.008Z,10.58
2019-01-05T12:22:43.536Z,10.58
2019-01-05T12:25:46.451Z,10.58
2019-01-05T12:28:48.933Z,10.57
2019-01-05T12:32:01.007Z,10.63
2019-01-05T12:35:12.453Z,10.63
2019-01-05T12:38:09.834Z,10.65
2019-01-05T12:41:09.364Z,10.66
2019-01-05T12:44:19.673Z,10.66
2019-01-05T12:47:31.640Z,10.65
2019-01-05T12:50:12.875Z,10.64
2019-01-05T12:53:31.683Z,10.67
2019-01-05T12:56:59.071Z,10.64
2019-01-05T13:00:05.567Z,10.60
2019-01-05T13:03:20.135Z,10.58
2019-01-05T13:06:26.290Z,10.57
2019-01-05T13:09:12.786Z,10.58
2019-01-05T13:12:15.172Z,10.59
2019-01-05T13:15:31.919Z,10.62
2019-01-05T13:18:43.255Z,10.59
2019-01-05T13:21:56.163Z,10.58
2019-01-05T13:25:10.933Z,10.56
2019-01-05T13:28:36.437Z,10.53
2019-01-05T13:32:12.487Z,10.51
2019-01-05T13:35:38.643Z,10.47
2019-01-05T13:38:47.293Z,10.47
2019-01-05T13:42:04.101Z,10.47
2019-01-05T13:45:08.626Z,10.46
2019-01-05T13:48:22.615Z,10.48
2019-01-05T13:51:34.423Z,10.45
2019-01-05T13:54:07.653Z,10.45
2019-01-05T13:56:41.662Z,10.50
2019-01-05T13:59:19.274Z,10.55
2019-01-05T14:01:53.276Z,10.58
2019-01-05T14:04:34.155Z,10.60
2019-01-05T14:07:21.531Z,10.60
2019-01-05T14:10:04.425Z,10.58
2019-01-05T14:12:35.465Z,10.57
2019-01-05T14:15:10.019Z,10.58
2019-01-05T14:17:41.131Z,10.62
2019-01-05T14:20:15.931Z,10.61
2019-01-05T14:22:56.283Z,10.62
2019-01-05T14:25:27.417Z,10.62
2019-01-05T14:28:15.416Z,10.63
2019-01-05T14:31:02.880Z,10.59
2019-01-05T14:33:35.158Z,10.60
2019-01-05T14:36:06.378Z,10.63
2019-01-05T14:38:53.325Z,10.67
2019-01-05T14:41:29.391Z,10.66
2019-01-05T14:44:18.829Z,10.68
2019-01-05T14:46:50.141Z,10.67
2019-01-05T14:49:25.034Z,10.70
2019-01-05T14:51:59.300Z,10.71
2019-01-05T14:54:46.836Z,10.69
2019-01-05T14:57:36.991Z,10.67
2019-01-05T15:00:12.289Z,10.63
2019-01-05T15:02:59.235Z,10.63
2019-01-05T15:05:42.486Z,10.57
2019-01-05T15:08:30.579Z,10.54
2019-01-05T15:11:02.757Z,10.52
2019-01-05T15:13:49.963Z,10.52
2019-01-05T15:16:37.300Z,10.50
2019-01-05T15:19:24.725Z,10.47
2019-01-05T15:21:58.482Z,10.43
2019-01-05T15:24:44.505Z,10.42
2019-01-05T15:27:15.637Z,10.42
2019-01-05T15:29:47.013Z,10.43
2019-01-05T15:32:35.820Z,10.45
2019-01-05T15:35:22.774Z,10.40
2019-01-05T15:38:02.577Z,10.37
2019-01-05T15:40:36.201Z,10.35
2019-01-05T15:43:07.291Z,10.36
2019-01-05T15:45:44.092Z,10.36
2019-01-05T15:48:33.226Z,10.35
2019-01-05T15:51:22.553Z,10.33
2019-01-05T15:54:05.464Z,10.31
2019-01-05T15:56:45.578Z,10.31
2019-01-05T15:59:22.741Z,10.29
2019-01-05T16:02:00.698Z,10.29
2019-01-05T16:04:45.498Z,10.29
2019-01-05T16:07:32.897Z,10.28
2019-01-05T16:10:09.990Z,10.28
2019-01-05T16:12:42.719Z,10.26
2019-01-05T16:15:16.536Z,10.27
2019-01-05T16:17:47.655Z,10.24
2019-01-05T16:20:27.624Z,10.27
2019-01-05T16:23:34.343Z,10.26
2019-01-05T16:26:21.764Z,10.20
2019-01-05T16:29:05.045Z,10.18
2019-01-05T16:31:47.653Z,10.16
2019-01-05T16:34:34.510Z,10.13
2019-01-05T16:37:08.217Z,10.10
2019-01-05T16:39:50.882Z,10.11
2019-01-05T16:42:30.651Z,10.08
2019-01-05T16:45:17.477Z,10.09
2019-01-05T16:47:51.170Z,10.07
2019-01-05T16:50:40.354Z,10.07
2019-01-05T16:53:13.854Z,10.07
2019-01-05T16:55:56.873Z,10.07
2019-01-05T16:58:45.159Z,10.08
2019-01-05T17:01:32.199Z,10.07
2019-01-05T17:04:05.622Z,10.06
2019-01-05T17:06:52.727Z,10.09
2019-01-05T17:09:39.832Z,10.10
2019-01-05T17:12:19.811Z,10.08
2019-01-05T17:15:02.861Z,10.09
2019-01-05T17:20:19.468Z,10.12
2019-01-05T17:23:06.754Z,10.15
2019-01-05T17:25:54.640Z,10.14
2019-01-05T17:28:25.823Z,10.13
2019-01-05T17:30:59.877Z,10.16
2019-01-05T17:33:30.947Z,10.17
2019-01-05T17:36:18.207Z,10.20
2019-01-05T17:38:54.984Z,10.17
2019-01-05T17:41:28.699Z,10.18
2019-01-05T17:44:03.631Z,10.20
2019-01-05T17:46:44.253Z,10.20
2019-01-05T17:49:18.262Z,10.21
2019-01-05T17:51:53.849Z,10.23
2019-01-05T17:54:24.862Z,10.22
2019-01-05T17:56:57.755Z,10.26
2019-01-05T17:59:40.841Z,10.26
2019-01-05T18:02:26.871Z,10.26
2019-01-05T18:05:06.842Z,10.24
2019-01-05T18:07:54.200Z,10.24
2019-01-05T18:10:31.359Z,10.23
2019-01-05T18:13:11.320Z,10.24
2019-01-05T18:15:42.388Z,10.24
2019-01-05T18:18:23.395Z,10.26
2019-01-05T18:21:00.414Z,10.25
2019-01-05T18:23:47.688Z,10.25
2019-01-05T18:26:33.937Z,10.23
2019-01-05T18:29:08.040Z,10.22
2019-01-05T18:31:45.050Z,10.23
2019-01-05T18:34:27.903Z,10.27
2019-01-05T18:37:14.873Z,10.27
2019-01-05T18:39:54.912Z,10.29
2019-01-05T18:42:25.928Z,10.28
2019-01-05T18:44:57.015Z,10.29
2019-01-05T18:47:34.312Z,10.29
2019-01-05T18:53:05.844Z,10.31
2019-01-05T18:55:51.915Z,10.31
2019-01-05T18:58:39.075Z,10.29
2019-01-05T19:01:12.520Z,10.27
2019-01-05T19:03:59.517Z,10.28
2019-01-05T19:06:30.530Z,10.24
2019-01-05T19:09:18.035Z,10.24
2019-01-05T19:11:49.287Z,10.23
2019-01-05T19:14:26.465Z,10.22
2019-01-05T19:17:15.291Z,10.23
2019-01-05T19:19:51.976Z,10.18
2019-01-05T19:22:39.136Z,10.17
2019-01-05T19:25:31.013Z,10.14
2019-01-05T19:28:02.218Z,10.12
2019-01-05T19:30:49.428Z,10.12
2019-01-05T19:33:26.760Z,10.12
2019-01-05T19:36:00.560Z,10.14
2019-01-05T19:38:48.525Z,10.17
2019-01-05T19:41:33.318Z,10.14
2019-01-05T19:44:16.099Z,10.13
2019-01-05T19:47:03.275Z,10.14
2019-01-05T19:49:52.886Z,10.12
2019-01-05T19:52:35.769Z,10.10
2019-01-05T19:55:19.490Z,10.09
2019-01-05T19:57:50.771Z,10.08
2019-01-05T20:00:25.058Z,10.12
2019-01-05T20:03:08.604Z,10.13
2019-01-05T20:05:42.283Z,10.13
2019-01-05T20:08:29.675Z,10.12
2019-01-05T20:11:19.724Z,10.11
2019-01-05T20:14:05.963Z,10.08
2019-01-05T20:16:53.505Z,10.07
2019-01-05T20:19:31.488Z,10.03
2019-01-05T20:22:02.587Z,10.05
2019-01-05T20:24:36.643Z,10.06
2019-01-05T20:27:10.376Z,10.09
2019-01-05T20:29:47.631Z,10.08
2019-01-05T20:32:21.935Z,10.08
2019-01-05T20:35:11.133Z,10.11
2019-01-05T20:37:42.180Z,10.12
2019-01-05T20:40:28.458Z,10.12
2019-01-05T20:43:17.803Z,10.10
2019-01-05T20:46:04.076Z,10.09
2019-01-05T20:48:43.986Z,10.07
2019-01-05T20:54:21.538Z,10.06
2019-01-05T20:56:52.971Z,10.08
2019-01-05T20:59:26.438Z,10.10
2019-01-05T21:02:06.023Z,10.12
2019-01-05T21:04:43.278Z,10.11
2019-01-05T21:07:29.587Z,10.11
2019-01-05T21:10:09.434Z,10.09
2019-01-05T21:12:56.413Z,10.10
2019-01-05T21:15:27.434Z,10.09
2019-01-05T21:18:16.644Z,10.09
2019-01-05T21:20:53.191Z,10.08
2019-01-05T21:23:24.350Z,10.06
2019-01-05T21:25:55.401Z,10.11
2019-01-05T21:28:29.138Z,10.12
2019-01-05T21:31:31.236Z,10.13
2019-01-05T21:34:07.921Z,10.10
2019-01-05T21:36:41.664Z,10.10
2019-01-05T21:39:28.713Z,10.10
2019-01-05T21:42:05.754Z,10.09
2019-01-05T21:44:55.163Z,10.10
2019-01-05T21:47:42.484Z,10.08
2019-01-05T21:50:13.497Z,10.07
2019-01-05T21:52:47.518Z,10.07
2019-01-05T21:55:24.467Z,10.06
2019-01-05T21:58:10.054Z,10.07
2019-01-05T22:01:06.262Z,10.08
2019-01-05T22:03:53.907Z,10.08
2019-01-05T22:06:34.164Z,10.06
2019-01-05T22:09:21.507Z,10.02
2019-01-05T22:11:52.517Z,10.01
2019-01-05T22:14:23.555Z,10.00
2019-01-05T22:16:57.530Z,10.03
2019-01-05T22:19:31.882Z,10.02
2019-01-05T22:22:06.164Z,9.99
2019-01-05T22:24:39.625Z,9.99
2019-01-05T22:27:10.654Z,9.99
2019-01-05T22:29:47.928Z,9.99
2019-01-05T22:32:33.999Z,9.98
2019-01-05T22:35:13.845Z,9.97
2019-01-05T22:37:53.632Z,9.95
2019-01-05T22:40:40.575Z,9.93
2019-01-05T22:43:20.584Z,9.90
2019-01-05T22:45:54.597Z,9.89
2019-01-05T22:48:25.606Z,9.89
2019-01-05T22:50:56.642Z,9.89
2019-01-05T22:53:33.388Z,9.90
2019-01-05T22:56:04.403Z,9.89
2019-01-05T22:58:51.523Z,9.88
2019-01-05T23:01:40.808Z,9.88
2019-01-05T23:04:20.639Z,9.83
2019-01-05T23:06:51.936Z,9.83
2019-01-05T23:09:26.163Z,9.84
2019-01-05T23:11:59.931Z,9.84
2019-01-05T23:14:47.348Z,9.82
2019-01-05T23:17:30.290Z,9.82
2019-01-05T23:20:17.704Z,9.78
2019-01-05T23:23:00.640Z,9.75
2019-01-05T23:25:43.654Z,9.73
2019-01-05T23:28:14.670Z,9.72
2019-01-05T23:30:52.982Z,9.75
2019-01-05T23:33:27.132Z,9.77
2019-01-05T23:35:58.175Z,9.78
2019-01-05T23:38:34.587Z,9.79
2019-01-05T23:41:05.909Z,9.78
2019-01-05T23:43:39.945Z,9.82
2019-01-05T23:46:10.954Z,9.82
2019-01-05T23:48:58.316Z,9.83
2019-01-05T23:51:44.145Z,9.79
2019-01-05T23:54:20.963Z,9.81
2019-01-05T23:56:58.061Z,9.79
2019-01-05T23:59:31.790Z,9.78
